createdAt,value
2022-09-12T06:02:53.644Z,101512.53
2022-09-12T06:05:21.418Z,101501.38
2022-09-12T06:07:48.905Z,101508.16
2022-09-12T06:10:17.969Z,101500.59
2022-09-12T06:12:45.985Z,101502.19
2022-09-12T06:15:14.483Z,101499.66
2022-09-12T06:17:42.084Z,101504.28
2022-09-12T06:20:09.876Z,101508.00
2022-09-12T06:22:37.623Z,101505.53
2022-09-12T06:25:05.598Z,101504.22
2022-09-12T06:27:33.032Z,101510.38
2022-09-12T06:30:00.918Z,101510.88
2022-09-12T06:32:31.511Z,101511.94
2022-09-12T06:34:59.094Z,101508.19
2022-09-12T06:37:26.622Z,101509.97
2022-09-12T06:39:56.022Z,101506.50
2022-09-12T06:42:23.858Z,101499.81
2022-09-12T06:44:52.336Z,101495.75
2022-09-12T06:47:21.204Z,101494.59
2022-09-12T06:49:49.211Z,101498.03
2022-09-12T06:52:17.421Z,101502.50
2022-09-12T06:54:45.113Z,101491.31
2022-09-12T06:57:13.066Z,101490.81
2022-09-12T06:59:40.623Z,101482.63
2022-09-12T07:02:09.926Z,101479.53
2022-09-12T07:04:37.394Z,101479.34
2022-09-12T07:07:05.708Z,101465.75
2022-09-12T07:09:33.451Z,101477.34
2022-09-12T07:12:04.368Z,101474.44
2022-09-12T07:14:32.142Z,101475.63
2022-09-12T07:16:59.662Z,101478.81
2022-09-12T07:19:27.231Z,101467.69
2022-09-12T07:21:58.532Z,101480.63
2022-09-12T07:24:26.397Z,101475.44
2022-09-12T07:26:53.871Z,101484.94
2022-09-12T07:29:37.855Z,101485.00
2022-09-12T07:32:06.580Z,101478.84
2022-09-12T07:34:34.497Z,101482.41
2022-09-12T07:37:02.013Z,101487.41
2022-09-12T07:39:29.756Z,101485.22
2022-09-12T07:41:57.765Z,101486.19
2022-09-12T07:44:25.428Z,101476.97
2022-09-12T07:46:52.869Z,101480.94
2022-09-12T07:49:20.322Z,101480.09
2022-09-12T07:51:47.826Z,101475.38
2022-09-12T07:54:15.933Z,101484.47
2022-09-12T07:56:43.564Z,101479.75
2022-09-12T07:59:11.316Z,101477.75
2022-09-12T08:01:39.957Z,101485.16
2022-09-12T08:04:07.705Z,101481.78
2022-09-12T08:06:36.984Z,101483.47
2022-09-12T08:09:05.732Z,101478.41
2022-09-12T08:11:33.492Z,101478.06
2022-09-12T08:14:03.037Z,101487.03
2022-09-12T08:16:31.967Z,101483.47
2022-09-12T08:19:03.667Z,101486.84
2022-09-12T08:21:33.225Z,101478.56
2022-09-12T08:24:03.893Z,101489.06
2022-09-12T08:26:33.484Z,101489.81
2022-09-12T08:29:01.878Z,101488.72
2022-09-12T08:31:29.321Z,101490.22
2022-09-12T08:33:58.090Z,101495.66
2022-09-12T08:36:27.768Z,101497.19
2022-09-12T08:39:00.735Z,101506.38
2022-09-12T08:41:35.189Z,101499.38
2022-09-12T08:44:14.398Z,101503.38
2022-09-12T08:47:08.922Z,101506.41
2022-09-12T08:49:49.004Z,101499.66
2022-09-12T08:52:27.741Z,101497.59
2022-09-12T08:54:56.717Z,101502.16
2022-09-12T08:57:24.865Z,101502.03
2022-09-12T08:59:54.504Z,101499.66
2022-09-12T09:02:24.892Z,101489.53
2022-09-12T09:05:07.193Z,101498.44
2022-09-12T09:07:40.963Z,101502.38
2022-09-12T09:10:24.336Z,101491.34
2022-09-12T09:12:59.101Z,101498.97
2022-09-12T09:15:34.482Z,101501.09
2022-09-12T09:18:09.997Z,101500.09
2022-09-12T09:20:41.292Z,101505.16
2022-09-12T09:23:33.466Z,101504.47
2022-09-12T09:26:10.998Z,101505.88
2022-09-12T09:28:54.218Z,101510.09
2022-09-12T09:31:24.463Z,101502.31
2022-09-12T09:33:55.534Z,101508.81
2022-09-12T09:37:13.534Z,101516.84
2022-09-12T09:39:50.210Z,101520.50
2022-09-12T09:42:23.739Z,101514.84
2022-09-12T09:44:54.401Z,101506.84
2022-09-12T09:47:22.116Z,101506.84
2022-09-12T09:49:49.872Z,101504.28
2022-09-12T09:52:24.905Z,101497.25
2022-09-12T09:55:01.072Z,101495.72
2022-09-12T09:57:34.827Z,101494.97
2022-09-12T10:00:41.758Z,101488.94
2022-09-12T10:03:13.207Z,101490.75
2022-09-12T10:05:49.054Z,101483.59
2022-09-12T10:08:27.524Z,101482.56
2022-09-12T10:10:56.225Z,101490.75
2022-09-12T10:13:53.383Z,101492.75
2022-09-12T10:16:23.699Z,101502.88
2022-09-12T10:18:52.653Z,101499.19
2022-09-12T10:21:27.834Z,101491.72
2022-09-12T10:24:06.490Z,101487.63
2022-09-12T10:26:38.340Z,101490.47
2022-09-12T10:29:18.854Z,101476.13
2022-09-12T10:31:55.665Z,101487.63
2022-09-12T10:34:44.746Z,101499.34
2022-09-12T10:37:27.129Z,101481.97
2022-09-12T10:39:57.411Z,101489.63
2022-09-12T10:42:46.671Z,101484.97
2022-09-12T10:45:32.455Z,101482.44
2022-09-12T10:48:06.756Z,101483.28
2022-09-12T10:50:43.142Z,101482.03
2022-09-12T10:53:23.998Z,101473.56
2022-09-12T10:56:06.902Z,101471.56
2022-09-12T10:58:40.545Z,101476.50
2022-09-12T11:01:42.329Z,101473.97
2022-09-12T11:04:12.907Z,101472.00
2022-09-12T11:06:45.013Z,101472.72
2022-09-12T11:09:39.605Z,101482.44
2022-09-12T11:12:22.814Z,101478.63
2022-09-12T11:15:34.794Z,101477.94
2022-09-12T11:18:30.392Z,101481.47
2022-09-12T11:21:16.259Z,101480.47
2022-09-12T11:24:04.516Z,101484.97
2022-09-12T11:26:42.426Z,101487.09
2022-09-12T11:29:31.760Z,101478.63
2022-09-12T11:32:14.262Z,101489.59
2022-09-12T11:35:03.131Z,101483.53
2022-09-12T11:38:03.019Z,101491.56
2022-09-12T11:40:45.543Z,101485.38
2022-09-12T11:43:29.324Z,101489.00
2022-09-12T11:46:05.225Z,101481.97
2022-09-12T11:48:46.270Z,101490.84
2022-09-12T11:51:19.918Z,101494.91
2022-09-12T11:54:19.629Z,101487.75
2022-09-12T11:56:50.842Z,101480.13
2022-09-12T11:59:30.953Z,101487.56
2022-09-12T12:02:00.362Z,101487.44
2022-09-12T12:04:38.074Z,101489.00
2022-09-12T12:07:08.128Z,101488.28
2022-09-12T12:09:37.232Z,101490.25
2022-09-12T12:12:09.415Z,101486.88
2022-09-12T12:14:44.197Z,101477.13
2022-09-12T12:17:24.245Z,101484.63
2022-09-12T12:20:05.769Z,101485.91
2022-09-12T12:22:36.090Z,101483.72
2022-09-12T12:25:12.541Z,101487.25
2022-09-12T12:28:01.818Z,101488.13
2022-09-12T12:30:29.630Z,101484.47
2022-09-12T12:33:07.397Z,101490.78
2022-09-12T12:35:43.829Z,101485.44
2022-09-12T12:38:33.743Z,101474.31
2022-09-12T12:41:19.437Z,101476.25
2022-09-12T12:43:50.871Z,101476.25
2022-09-12T12:46:24.040Z,101475.69
2022-09-12T12:48:54.400Z,101478.63
2022-09-12T12:51:50.000Z,101477.03
2022-09-12T12:54:27.182Z,101471.38
2022-09-12T12:57:20.393Z,101467.16
2022-09-12T12:59:52.488Z,101473.22
2022-09-12T13:02:31.862Z,101473.38
2022-09-12T13:05:02.612Z,101477.84
2022-09-12T13:07:35.064Z,101471.78
2022-09-12T13:10:04.551Z,101472.78
2022-09-12T13:12:38.071Z,101475.56
2022-09-12T13:15:46.563Z,101469.66
2022-09-12T13:18:20.081Z,101466.97
2022-09-12T13:20:55.620Z,101465.44
2022-09-12T13:23:26.119Z,101462.91
2022-09-12T13:25:56.074Z,101460.22
2022-09-12T13:28:26.445Z,101462.91
2022-09-12T13:31:18.352Z,101462.91
2022-09-12T13:33:56.003Z,101464.84
2022-09-12T13:36:51.588Z,101456.41
2022-09-12T13:39:29.191Z,101460.72
2022-09-12T13:42:17.922Z,101448.22
2022-09-12T13:44:55.673Z,101447.53
2022-09-12T13:47:36.923Z,101453.84
2022-09-12T13:50:07.927Z,101442.31
2022-09-12T13:52:38.280Z,101442.19
2022-09-12T13:55:18.588Z,101443.41
2022-09-12T13:57:46.101Z,101438.34
2022-09-12T14:00:19.533Z,101445.25
2022-09-12T14:02:48.500Z,101433.59
2022-09-12T14:05:22.763Z,101437.81
2022-09-12T14:07:58.512Z,101441.59
2022-09-12T14:10:33.219Z,101438.22
2022-09-12T14:13:03.404Z,101431.03
2022-09-12T14:15:36.017Z,101426.53
2022-09-12T14:18:06.808Z,101431.28
2022-09-12T14:20:39.537Z,101430.44
2022-09-12T14:23:27.519Z,101427.06
2022-09-12T14:26:02.555Z,101430.44
2022-09-12T14:28:31.309Z,101423.44
2022-09-12T14:31:02.119Z,101428.91
2022-09-12T14:33:45.901Z,101437.31
2022-09-12T14:36:35.970Z,101442.75
2022-09-12T14:39:18.512Z,101435.91
2022-09-12T14:41:49.237Z,101429.69
2022-09-12T14:44:21.066Z,101428.59
2022-09-12T14:46:49.266Z,101429.31
2022-09-12T14:49:46.079Z,101429.59
2022-09-12T14:52:25.644Z,101435.75
2022-09-12T14:54:57.786Z,101439.28
2022-09-12T14:57:36.484Z,101432.00
2022-09-12T15:00:12.707Z,101437.97
2022-09-12T15:02:42.212Z,101439.16
2022-09-12T15:05:10.772Z,101432.84
2022-09-12T15:07:43.958Z,101444.66
2022-09-12T15:10:22.953Z,101442.31
2022-09-12T15:12:50.496Z,101445.94
2022-09-12T15:15:20.815Z,101438.47
2022-09-12T15:17:48.838Z,101446.31
2022-09-12T15:20:16.786Z,101433.28
2022-09-12T15:22:44.360Z,101435.09
2022-09-12T15:25:13.353Z,101443.13
2022-09-12T15:27:42.436Z,101435.00
2022-09-12T15:30:12.201Z,101435.97
2022-09-12T15:32:42.564Z,101430.19
2022-09-12T15:35:23.142Z,101434.53
2022-09-12T15:37:50.868Z,101439.44
2022-09-12T15:40:19.139Z,101440.00
2022-09-12T15:42:46.766Z,101436.38
2022-09-12T15:45:25.940Z,101448.03
2022-09-12T15:47:54.571Z,101445.63
2022-09-12T15:50:22.498Z,101446.25
2022-09-12T15:52:50.362Z,101454.81
2022-09-12T15:55:28.332Z,101448.50
2022-09-12T15:57:56.500Z,101455.13
2022-09-12T16:00:24.802Z,101448.09
2022-09-12T16:02:53.822Z,101446.78
2022-09-12T16:05:25.279Z,101456.03
2022-09-12T16:07:54.938Z,101459.28
2022-09-12T16:10:29.696Z,101461.63
2022-09-12T16:12:57.951Z,101451.75
2022-09-12T16:15:26.178Z,101445.63
2022-09-12T16:17:54.512Z,101451.28
2022-09-12T16:20:22.790Z,101447.28
2022-09-12T16:22:50.600Z,101454.44
2022-09-12T16:25:18.587Z,101469.03
2022-09-12T16:27:46.506Z,101472.84
2022-09-12T16:30:14.537Z,101467.50
2022-09-12T16:32:42.196Z,101480.84
2022-09-12T16:35:09.998Z,101477.97
2022-09-12T16:37:38.113Z,101478.56
2022-09-12T16:40:07.329Z,101483.69
2022-09-12T16:42:35.840Z,101486.84
2022-09-12T16:45:03.830Z,101495.19
2022-09-12T16:47:33.016Z,101494.25
2022-09-12T16:50:00.532Z,101495.50
2022-09-12T16:52:28.818Z,101504.81
2022-09-12T16:54:56.452Z,101499.72
2022-09-12T16:57:23.850Z,101511.72
2022-09-12T16:59:52.118Z,101505.56
2022-09-12T17:02:19.734Z,101512.69
2022-09-12T17:04:47.548Z,101508.69
2022-09-12T17:07:15.402Z,101514.13
2022-09-12T17:09:47.433Z,101512.06
2022-09-12T17:12:15.654Z,101513.75
2022-09-12T17:14:43.371Z,101512.75
2022-09-12T17:17:11.025Z,101517.31
2022-09-12T17:19:38.876Z,101512.50
2022-09-12T17:22:06.444Z,101507.75
2022-09-12T17:24:34.166Z,101511.75
2022-09-12T17:27:02.089Z,101512.13
2022-09-12T17:29:29.834Z,101507.28
2022-09-12T17:31:57.582Z,101508.59
2022-09-12T17:34:25.308Z,101504.84
2022-09-12T17:36:52.910Z,101507.50
2022-09-12T17:39:20.685Z,101504.94
2022-09-12T17:41:51.058Z,101501.34
2022-09-12T17:44:20.236Z,101511.69
2022-09-12T17:46:47.886Z,101505.19
2022-09-12T17:49:18.740Z,101499.00
2022-09-12T17:51:46.425Z,101509.56
2022-09-12T17:54:16.338Z,101502.84
2022-09-12T17:56:49.758Z,101491.81
2022-09-12T17:59:19.596Z,101500.84
2022-09-12T18:02:05.968Z,101505.22
2022-09-12T18:04:33.712Z,101497.13
2022-09-12T18:07:01.757Z,101499.06
2022-09-12T18:09:30.777Z,101504.50
2022-09-12T18:11:59.265Z,101511.25
2022-09-12T18:14:28.324Z,101507.88
2022-09-12T18:16:57.647Z,101500.69
2022-09-12T18:19:27.314Z,101502.16
2022-09-12T18:21:56.147Z,101505.25
2022-09-12T18:24:24.663Z,101503.44
2022-09-12T18:26:52.745Z,101497.41
2022-09-12T18:29:21.518Z,101491.50
2022-09-12T18:31:50.617Z,101492.00
2022-09-12T18:34:18.508Z,101498.47
2022-09-12T18:36:48.562Z,101493.66
2022-09-12T18:39:17.970Z,101495.81
2022-09-12T18:41:46.511Z,101493.72
2022-09-12T18:44:14.755Z,101493.72
2022-09-12T18:46:43.148Z,101482.75
2022-09-12T18:49:11.152Z,101492.84
2022-09-12T18:51:40.225Z,101487.22
2022-09-12T18:54:12.784Z,101486.91
2022-09-12T18:56:43.605Z,101483.75
2022-09-12T18:59:15.560Z,101482.75
2022-09-12T19:01:43.834Z,101485.03
2022-09-12T19:04:13.660Z,101487.44
2022-09-12T19:06:44.054Z,101481.16
2022-09-12T19:09:14.756Z,101474.75
2022-09-12T19:11:50.336Z,101474.50
2022-09-12T19:14:22.614Z,101472.38
2022-09-12T19:16:52.080Z,101464.41
2022-09-12T19:19:21.288Z,101474.19
2022-09-12T19:21:49.170Z,101480.75
2022-09-12T19:24:17.517Z,101472.38
2022-09-12T19:26:45.878Z,101471.16
2022-09-12T19:29:14.799Z,101477.94
2022-09-12T19:31:43.798Z,101482.88
2022-09-12T19:34:13.388Z,101480.59
2022-09-12T19:36:45.513Z,101483.13
2022-09-12T19:39:17.407Z,101477.53
2022-09-12T19:41:45.936Z,101465.91
2022-09-12T19:44:14.587Z,101475.06
2022-09-12T19:46:42.856Z,101465.69
2022-09-12T19:49:12.956Z,101472.31
2022-09-12T19:51:40.926Z,101474.00
2022-09-12T19:54:08.454Z,101480.94
2022-09-12T19:56:36.071Z,101483.25
2022-09-12T19:59:05.505Z,101482.75
2022-09-12T20:01:33.312Z,101481.78
2022-09-12T20:04:01.256Z,101477.13
2022-09-12T20:06:29.004Z,101484.34
2022-09-12T20:08:56.548Z,101475.22
2022-09-12T20:11:25.838Z,101485.72
2022-09-12T20:13:53.552Z,101479.25
2022-09-12T20:16:29.076Z,101478.09
2022-09-12T20:19:00.607Z,101462.78
2022-09-12T20:21:31.937Z,101460.97
2022-09-12T20:24:15.867Z,101471.41
2022-09-12T20:26:43.371Z,101470.03
2022-09-12T20:29:11.499Z,101470.78
2022-09-12T20:31:41.624Z,101470.91
2022-09-12T20:34:16.002Z,101469.19
2022-09-12T20:36:43.982Z,101472.59
2022-09-12T20:39:14.628Z,101482.47
2022-09-12T20:41:42.468Z,101476.09
2022-09-12T20:44:10.326Z,101473.75
2022-09-12T20:46:37.863Z,101467.06
2022-09-12T20:49:05.762Z,101461.53
2022-09-12T20:51:33.245Z,101459.53
2022-09-12T20:54:03.287Z,101461.03
2022-09-12T20:56:32.929Z,101464.63
2022-09-12T20:59:01.104Z,101455.72
2022-09-12T21:01:31.399Z,101451.47
2022-09-12T21:04:01.810Z,101452.84
2022-09-12T21:06:29.342Z,101445.63
2022-09-12T21:09:00.695Z,101438.72
2022-09-12T21:11:29.135Z,101452.00
2022-09-12T21:13:56.815Z,101449.78
2022-09-12T21:16:24.333Z,101449.44
2022-09-12T21:18:57.360Z,101443.19
2022-09-12T21:21:25.805Z,101444.56
2022-09-12T21:23:57.932Z,101432.56
2022-09-12T21:26:25.883Z,101441.91
2022-09-12T21:28:53.838Z,101433.94
2022-09-12T21:31:21.481Z,101442.03
2022-09-12T21:33:49.590Z,101441.38
2022-09-12T21:36:17.332Z,101435.53
2022-09-12T21:38:45.110Z,101440.97
2022-09-12T21:41:15.565Z,101435.31
2022-09-12T21:43:44.048Z,101436.38
2022-09-12T21:46:12.179Z,101432.56
2022-09-12T21:48:39.742Z,101426.28
2022-09-12T21:51:07.252Z,101422.16
2022-09-12T21:53:34.938Z,101426.19
2022-09-12T21:56:05.358Z,101426.69
2022-09-12T21:58:33.375Z,101423.53
2022-09-12T22:01:01.593Z,101424.16
2022-09-12T22:03:29.922Z,101421.41
2022-09-12T22:06:02.979Z,101426.91
2022-09-12T22:08:32.531Z,101425.41
2022-09-12T22:11:02.179Z,101417.66
2022-09-12T22:13:33.832Z,101417.88
2022-09-12T22:16:03.164Z,101426.69
2022-09-12T22:18:35.732Z,101417.56
2022-09-12T22:21:04.747Z,101420.50
2022-09-12T22:23:50.399Z,101419.78
2022-09-12T22:26:18.074Z,101420.63
2022-09-12T22:28:47.287Z,101419.78
2022-09-12T22:31:15.752Z,101411.91
2022-09-12T22:33:43.624Z,101416.28
2022-09-12T22:36:11.626Z,101412.69
2022-09-12T22:38:39.374Z,101415.78
2022-09-12T22:41:09.321Z,101415.44
2022-09-12T22:43:37.524Z,101409.72
2022-09-12T22:46:09.516Z,101422.88
2022-09-12T22:48:38.189Z,101416.72
2022-09-12T22:51:06.319Z,101412.91
2022-09-12T22:53:34.960Z,101418.44
2022-09-12T22:56:03.986Z,101407.72
2022-09-12T22:58:31.890Z,101408.13
2022-09-12T23:00:59.580Z,101407.19
2022-09-12T23:03:27.177Z,101395.72
2022-09-12T23:05:54.676Z,101399.66
2022-09-12T23:08:22.177Z,101394.56
2022-09-12T23:10:49.861Z,101396.59
2022-09-12T23:13:17.863Z,101393.72
2022-09-12T23:15:45.565Z,101388.63
2022-09-12T23:18:13.288Z,101385.63
2022-09-12T23:20:40.978Z,101392.88
2022-09-12T23:23:08.572Z,101386.69
2022-09-12T23:25:36.193Z,101381.31
2022-09-12T23:28:04.336Z,101381.75
2022-09-12T23:30:32.110Z,101384.19
2022-09-12T23:33:01.146Z,101372.41
2022-09-12T23:35:28.636Z,101379.38
2022-09-12T23:37:56.056Z,101367.72
2022-09-12T23:40:23.660Z,101368.69
2022-09-12T23:42:51.419Z,101369.13
2022-09-12T23:45:18.876Z,101363.81
2022-09-12T23:47:46.310Z,101360.09
2022-09-12T23:50:13.858Z,101361.56
2022-09-12T23:52:41.330Z,101356.59
2022-09-12T23:55:09.280Z,101357.31
2022-09-12T23:57:37.045Z,101355.06
